createdAt,value
2022-08-02T00:00:33.679Z,79.19
2022-08-02T00:01:32.722Z,79.39
2022-08-02T00:02:39.781Z,79.29
2022-08-02T00:03:32.679Z,79.09
2022-08-02T00:04:32.633Z,78.99
2022-08-02T00:05:32.639Z,78.89
2022-08-02T00:06:32.611Z,78.79
2022-08-02T00:07:35.330Z,78.89
2022-08-02T00:08:33.631Z,79.13
2022-08-02T00:09:32.562Z,79.13
2022-08-02T00:10:32.551Z,79.03
2022-08-02T00:11:32.554Z,79.03
2022-08-02T00:12:32.521Z,79.13
2022-08-02T00:13:32.573Z,79.13
2022-08-02T00:14:32.502Z,79.03
2022-08-02T00:15:32.500Z,78.92
2022-08-02T00:16:37.944Z,79.03
2022-08-02T00:17:33.465Z,78.92
2022-08-02T00:18:32.463Z,79.03
2022-08-02T00:19:32.443Z,79.23
2022-08-02T00:20:32.437Z,79.13
2022-08-02T00:21:32.413Z,79.06
2022-08-02T00:22:32.393Z,78.96
2022-08-02T00:23:32.434Z,79.06
2022-08-02T00:24:33.364Z,79.06
2022-08-02T00:25:32.384Z,79.16
2022-08-02T00:26:32.355Z,79.16
2022-08-02T00:27:32.344Z,79.27
2022-08-02T00:28:32.334Z,79.27
2022-08-02T00:29:32.306Z,79.27
2022-08-02T00:30:32.293Z,79.36
2022-08-02T00:31:32.283Z,79.27
2022-08-02T00:32:32.264Z,79.16
2022-08-02T00:34:05.167Z,79.27
2022-08-02T00:34:37.739Z,79.27
2022-08-02T00:35:32.225Z,79.47
2022-08-02T00:36:32.226Z,79.47
2022-08-02T00:37:32.215Z,79.36
2022-08-02T00:38:32.205Z,79.36
2022-08-02T00:39:35.018Z,79.47
2022-08-02T00:40:32.164Z,79.57
2022-08-02T00:41:32.156Z,79.57
2022-08-02T00:42:32.135Z,79.41
2022-08-02T00:43:32.178Z,79.41
2022-08-02T00:44:32.105Z,79.71
2022-08-02T00:46:02.405Z,79.71
2022-08-02T00:46:33.116Z,79.81
2022-08-02T00:47:32.093Z,79.91
2022-08-02T00:48:32.075Z,80.01
2022-08-02T00:49:33.057Z,80.21
2022-08-02T00:50:32.025Z,80.21
2022-08-02T00:51:32.017Z,80.31
2022-08-02T00:52:32.006Z,80.31
2022-08-02T00:53:31.986Z,80.51
2022-08-02T00:54:32.027Z,80.51
2022-08-02T00:55:31.966Z,80.82
2022-08-02T00:56:31.944Z,80.62
2022-08-02T00:57:31.945Z,80.82
2022-08-02T00:58:31.925Z,80.82
2022-08-02T00:59:31.933Z,80.82
2022-08-02T01:00:31.895Z,81.02
2022-08-02T01:01:31.924Z,81.42
2022-08-02T01:02:31.867Z,81.62
2022-08-02T01:03:31.855Z,81.42
2022-08-02T01:04:32.444Z,81.16
2022-08-02T01:05:42.753Z,81.05
2022-08-02T01:06:32.816Z,81.16
2022-08-02T01:07:31.818Z,81.12
2022-08-02T01:08:32.055Z,81.22
2022-08-02T01:09:31.807Z,81.32
2022-08-02T01:10:31.778Z,81.32
2022-08-02T01:11:31.748Z,80.85
2022-08-02T01:12:31.735Z,80.11
2022-08-02T01:13:31.727Z,79.91
2022-08-02T01:14:31.719Z,79.91
2022-08-02T01:15:35.884Z,79.81
2022-08-02T01:16:32.687Z,79.91
2022-08-02T01:17:31.679Z,79.81
2022-08-02T01:18:31.649Z,79.85
2022-08-02T01:19:31.668Z,79.94
2022-08-02T01:20:31.628Z,80.05
2022-08-02T01:21:31.619Z,79.94
2022-08-02T01:22:59.345Z,80.05
2022-08-02T01:23:32.587Z,80.15
2022-08-02T01:24:31.610Z,80.35
2022-08-02T01:25:31.577Z,80.55
2022-08-02T01:26:31.549Z,80.55
2022-08-02T01:27:31.541Z,80.65
2022-08-02T01:28:31.520Z,80.79
2022-08-02T01:29:31.540Z,80.90
2022-08-02T01:30:31.491Z,81.10
2022-08-02T01:31:31.490Z,81.20
2022-08-02T01:32:31.472Z,81.20
2022-08-02T01:33:31.463Z,81.20
2022-08-02T01:34:31.465Z,81.30
2022-08-02T01:35:50.774Z,81.30
2022-08-02T01:36:32.411Z,81.20
2022-08-02T01:37:31.419Z,81.30
2022-08-02T01:38:31.401Z,81.40
2022-08-02T01:39:32.244Z,81.50
2022-08-02T01:40:31.381Z,81.40
2022-08-02T01:41:31.354Z,81.10
2022-08-02T01:42:31.334Z,80.99
2022-08-02T01:43:31.331Z,80.90
2022-08-02T01:44:31.353Z,80.99
2022-08-02T01:45:31.311Z,81.10
2022-08-02T01:46:31.282Z,80.79
2022-08-02T01:47:31.282Z,80.69
2022-08-02T01:48:31.259Z,81.13
2022-08-02T01:49:31.376Z,81.34
2022-08-02T01:50:31.222Z,81.34
2022-08-02T01:51:34.524Z,81.13
2022-08-02T01:52:32.200Z,81.23
2022-08-02T01:53:31.200Z,81.03
2022-08-02T01:54:31.197Z,81.13
2022-08-02T01:55:33.494Z,81.54
2022-08-02T01:56:32.140Z,81.54
2022-08-02T01:57:31.139Z,81.64
2022-08-02T01:58:31.112Z,81.74
2022-08-02T01:59:31.109Z,81.74
2022-08-02T02:00:31.087Z,81.54
2022-08-02T02:01:31.157Z,81.54
2022-08-02T02:02:31.902Z,81.54
2022-08-02T02:03:31.051Z,81.54
2022-08-02T02:04:31.059Z,81.44
2022-08-02T02:05:31.066Z,81.34
2022-08-02T02:06:31.002Z,81.23
2022-08-02T02:07:31.011Z,81.13
2022-08-02T02:08:30.985Z,81.34
2022-08-02T02:09:30.991Z,81.34
2022-08-02T02:10:31.005Z,81.34
2022-08-02T02:12:05.226Z,81.34
2022-08-02T02:12:31.923Z,81.34
2022-08-02T02:13:33.165Z,81.44
2022-08-02T02:14:30.913Z,81.44
2022-08-02T02:15:30.910Z,81.68
2022-08-02T02:16:30.904Z,81.78
2022-08-02T02:18:11.472Z,81.68
2022-08-02T02:18:31.857Z,81.68
2022-08-02T02:19:30.844Z,81.68
2022-08-02T02:20:30.853Z,81.68
2022-08-02T02:21:31.405Z,81.57
2022-08-02T02:22:30.822Z,81.48
2022-08-02T02:23:30.813Z,81.48
2022-08-02T02:24:30.785Z,81.37
2022-08-02T02:25:36.447Z,81.48
2022-08-02T02:26:31.921Z,81.27
2022-08-02T02:27:30.767Z,81.17
2022-08-02T02:28:30.723Z,81.17
2022-08-02T02:29:30.722Z,81.27
2022-08-02T02:30:30.716Z,81.27
2022-08-02T02:31:30.689Z,81.48
2022-08-02T02:32:30.676Z,81.37
2022-08-02T02:33:30.667Z,81.17
2022-08-02T02:34:30.647Z,81.17
2022-08-02T02:35:30.658Z,81.07
2022-08-02T02:36:30.617Z,80.77
2022-08-02T02:37:30.626Z,80.53
2022-08-02T02:38:30.594Z,80.32
2022-08-02T02:39:30.596Z,80.22
2022-08-02T02:40:30.579Z,80.12
2022-08-02T02:41:30.559Z,80.22
2022-08-02T02:42:30.539Z,80.36
2022-08-02T02:43:30.537Z,80.46
2022-08-02T02:44:30.516Z,80.57
2022-08-02T02:45:30.526Z,80.87
2022-08-02T02:46:30.498Z,81.07
2022-08-02T02:47:41.330Z,81.31
2022-08-02T02:48:31.448Z,81.51
2022-08-02T02:49:30.498Z,81.62
2022-08-02T02:50:30.461Z,81.71
2022-08-02T02:51:30.428Z,81.71
2022-08-02T02:52:30.408Z,81.82
2022-08-02T02:53:30.399Z,81.71
2022-08-02T02:54:34.875Z,81.82
2022-08-02T02:55:30.387Z,81.96
2022-08-02T02:56:30.349Z,82.16
2022-08-02T02:57:30.360Z,82.46
2022-08-02T02:58:30.333Z,82.46
2022-08-02T02:59:30.322Z,82.67
2022-08-02T03:00:30.327Z,82.36
2022-08-02T03:01:55.524Z,82.46
2022-08-02T03:02:31.269Z,82.46
2022-08-02T03:03:30.269Z,82.46
2022-08-02T03:04:36.124Z,82.56
2022-08-02T03:05:31.256Z,82.46
2022-08-02T03:06:30.229Z,82.36
2022-08-02T03:07:30.220Z,82.36
2022-08-02T03:08:30.205Z,82.36
2022-08-02T03:09:30.180Z,82.46
2022-08-02T03:10:30.188Z,82.67
2022-08-02T03:11:30.157Z,82.76
2022-08-02T03:12:32.176Z,83.17
2022-08-02T03:13:33.166Z,83.27
2022-08-02T03:14:31.119Z,83.27
2022-08-02T03:15:30.130Z,83.37
2022-08-02T03:16:30.099Z,83.58
2022-08-02T03:17:30.080Z,83.58
2022-08-02T03:18:30.074Z,83.58
2022-08-02T03:19:33.072Z,83.68
2022-08-02T03:20:30.053Z,83.58
2022-08-02T03:21:30.040Z,83.68
2022-08-02T03:22:30.019Z,83.78
2022-08-02T03:23:30.042Z,83.98
2022-08-02T03:24:30.008Z,84.02
2022-08-02T03:25:30.003Z,83.78
2022-08-02T03:26:29.952Z,83.72
2022-08-02T03:27:29.952Z,83.27
2022-08-02T03:28:29.938Z,83.01
2022-08-02T03:29:34.135Z,82.56
2022-08-02T03:30:29.932Z,82.16
2022-08-02T03:31:32.828Z,81.99
2022-08-02T03:32:29.872Z,81.90
2022-08-02T03:33:29.865Z,81.76
2022-08-02T03:34:29.862Z,81.55
2022-08-02T03:35:29.859Z,81.45
2022-08-02T03:36:29.830Z,81.35
2022-08-02T03:37:29.824Z,81.15
2022-08-02T03:38:29.799Z,81.25
2022-08-02T03:39:29.782Z,81.25
2022-08-02T03:40:29.793Z,81.15
2022-08-02T03:41:29.755Z,81.18
2022-08-02T03:42:29.743Z,81.39
2022-08-02T03:43:29.734Z,81.59
2022-08-02T03:44:29.742Z,81.69
2022-08-02T03:45:29.711Z,81.90
2022-08-02T03:46:29.702Z,82.14
2022-08-02T03:47:29.781Z,82.24
2022-08-02T03:48:34.122Z,82.24
2022-08-02T03:49:30.750Z,82.24
2022-08-02T03:50:29.645Z,82.24
2022-08-02T03:51:29.622Z,82.44
2022-08-02T03:52:29.614Z,82.54
2022-08-02T03:53:29.613Z,82.54
2022-08-02T03:54:32.876Z,82.54
2022-08-02T03:55:30.575Z,82.44
2022-08-02T03:56:29.567Z,82.44
2022-08-02T03:57:29.553Z,82.34
2022-08-02T03:58:29.535Z,82.14
2022-08-02T03:59:32.582Z,82.14
2022-08-02T04:00:29.504Z,82.24
2022-08-02T04:01:29.563Z,82.24
2022-08-02T04:02:29.482Z,82.03
2022-08-02T04:03:29.465Z,81.93
2022-08-02T04:04:29.477Z,81.93
2022-08-02T04:05:29.435Z,82.03
2022-08-02T04:06:29.424Z,82.24
2022-08-02T04:08:33.556Z,82.64
2022-08-02T04:08:36.973Z,82.84
2022-08-02T04:09:30.403Z,82.98
2022-08-02T04:10:29.375Z,82.75
2022-08-02T04:11:29.354Z,82.75
2022-08-02T04:12:29.363Z,82.64
2022-08-02T04:13:31.835Z,82.64
2022-08-02T04:14:30.337Z,82.64
2022-08-02T04:15:30.306Z,82.84
2022-08-02T04:16:29.307Z,82.89
2022-08-02T04:17:29.285Z,82.89
2022-08-02T04:18:29.267Z,83.15
2022-08-02T04:19:29.278Z,83.25
2022-08-02T04:20:29.247Z,83.25
2022-08-02T04:21:41.426Z,83.15
2022-08-02T04:22:30.217Z,83.15
2022-08-02T04:23:29.195Z,83.04
2022-08-02T04:24:29.216Z,83.04
2022-08-02T04:25:38.289Z,82.75
2022-08-02T04:26:30.167Z,82.44
2022-08-02T04:27:50.527Z,82.34
2022-08-02T04:28:30.139Z,82.14
2022-08-02T04:29:29.149Z,81.93
2022-08-02T04:30:29.128Z,81.83
2022-08-02T04:31:29.110Z,81.73
2022-08-02T04:32:29.088Z,81.73
2022-08-02T04:33:29.069Z,81.73
2022-08-02T04:34:29.063Z,81.93
2022-08-02T04:35:29.063Z,81.83
2022-08-02T04:36:31.079Z,81.63
2022-08-02T04:37:29.008Z,81.52
2022-08-02T04:38:28.997Z,81.43
2022-08-02T04:39:28.988Z,81.52
2022-08-02T04:40:28.998Z,81.73
2022-08-02T04:41:28.965Z,81.83
2022-08-02T04:42:29.028Z,81.83
2022-08-02T04:43:28.938Z,81.93
2022-08-02T04:44:28.933Z,82.14
2022-08-02T04:45:28.921Z,82.34
2022-08-02T04:46:28.908Z,82.44
2022-08-02T04:48:03.680Z,82.64
2022-08-02T04:48:29.867Z,82.75
2022-08-02T04:49:28.876Z,82.95
2022-08-02T04:50:28.853Z,82.95
2022-08-02T04:51:37.790Z,82.95
2022-08-02T04:52:29.816Z,83.04
2022-08-02T04:53:28.790Z,83.31
2022-08-02T04:54:28.788Z,83.21
2022-08-02T04:55:29.355Z,83.21
2022-08-02T04:56:28.770Z,83.21
2022-08-02T04:57:28.741Z,83.21
2022-08-02T04:58:44.077Z,83.21
2022-08-02T04:59:29.723Z,83.41
2022-08-02T05:00:28.785Z,83.41
2022-08-02T05:01:28.711Z,83.41
2022-08-02T05:02:28.675Z,83.41
2022-08-02T05:03:28.713Z,83.51
2022-08-02T05:04:28.661Z,83.61
2022-08-02T05:05:28.652Z,83.72
2022-08-02T05:06:28.631Z,83.82
2022-08-02T05:07:28.620Z,83.92
2022-08-02T05:08:29.613Z,83.92
2022-08-02T05:09:28.602Z,83.72
2022-08-02T05:10:28.601Z,83.68
2022-08-02T05:11:34.631Z,83.47
2022-08-02T05:12:29.551Z,83.07
2022-08-02T05:13:28.541Z,83.07
2022-08-02T05:14:28.529Z,82.76
2022-08-02T05:15:33.180Z,82.42
2022-08-02T05:16:31.594Z,82.22
2022-08-02T05:17:28.481Z,82.12
2022-08-02T05:18:28.482Z,81.82
2022-08-02T05:19:28.456Z,81.51
2022-08-02T05:20:28.460Z,81.41
2022-08-02T05:21:28.615Z,81.27
2022-08-02T05:22:28.424Z,81.27
2022-08-02T05:23:28.412Z,81.17
2022-08-02T05:24:28.992Z,81.27
2022-08-02T05:25:28.749Z,81.17
2022-08-02T05:26:28.391Z,80.97
2022-08-02T05:27:28.344Z,80.87
2022-08-02T05:28:28.323Z,80.97
2022-08-02T05:29:28.733Z,80.93
2022-08-02T05:30:28.329Z,81.34
2022-08-02T05:31:28.303Z,80.53
2022-08-02T05:32:28.443Z,80.32
2022-08-02T05:33:28.263Z,80.32
2022-08-02T05:34:28.254Z,80.43
2022-08-02T05:35:28.243Z,80.43
2022-08-02T05:36:28.254Z,81.26
2022-08-02T05:37:28.215Z,79.27
2022-08-02T05:38:28.223Z,77.28
2022-08-02T05:39:31.778Z,75.63
2022-08-02T05:40:28.164Z,74.25
2022-08-02T05:41:28.176Z,73.21
2022-08-02T05:42:28.153Z,72.37
2022-08-02T05:43:28.144Z,71.53
2022-08-02T05:44:28.137Z,70.93
2022-08-02T05:45:28.124Z,70.29
2022-08-02T05:46:28.139Z,69.89
2022-08-02T05:47:28.105Z,69.59
2022-08-02T05:48:31.874Z,69.26
2022-08-02T05:49:28.078Z,68.95
2022-08-02T05:50:28.066Z,68.76
2022-08-02T05:51:28.045Z,68.65
2022-08-02T05:52:28.023Z,68.62
2022-08-02T05:53:28.006Z,68.42
2022-08-02T05:54:27.997Z,68.22
2022-08-02T05:55:28.011Z,68.02
2022-08-02T05:56:28.720Z,68.45
2022-08-02T05:57:27.957Z,69.19
2022-08-02T05:58:28.415Z,70.23
2022-08-02T05:59:27.934Z,71.26
2022-08-02T06:00:28.062Z,72.10
2022-08-02T06:01:28.254Z,72.30
2022-08-02T06:02:30.490Z,72.20
2022-08-02T06:03:28.017Z,72.00
2022-08-02T06:04:28.337Z,72.20
2022-08-02T06:05:27.947Z,72.20
2022-08-02T06:06:27.867Z,72.20
2022-08-02T06:07:28.147Z,72.30
2022-08-02T06:08:27.956Z,72.17
2022-08-02T06:09:27.798Z,71.97
2022-08-02T06:10:27.830Z,71.67
2022-08-02T06:11:27.986Z,71.56
2022-08-02T06:12:27.848Z,71.67
2022-08-02T06:13:27.748Z,71.77
2022-08-02T06:14:30.491Z,71.87
2022-08-02T06:15:28.058Z,72.17
2022-08-02T06:16:32.235Z,72.17
2022-08-02T06:17:28.697Z,72.27
2022-08-02T06:18:28.374Z,72.37
2022-08-02T06:19:27.667Z,72.03
2022-08-02T06:20:27.727Z,71.63
2022-08-02T06:22:31.809Z,70.46
2022-08-02T06:22:33.203Z,71.00
2022-08-02T06:23:28.609Z,69.96
2022-08-02T06:24:27.600Z,69.73
2022-08-02T06:25:48.313Z,69.53
2022-08-02T06:26:28.595Z,69.22
2022-08-02T06:27:27.569Z,69.12
2022-08-02T06:28:27.870Z,68.99
2022-08-02T06:29:28.219Z,68.89
2022-08-02T06:30:27.759Z,68.79
2022-08-02T06:31:27.509Z,68.69
2022-08-02T06:32:27.565Z,68.69
2022-08-02T06:33:27.489Z,68.46
2022-08-02T06:34:27.500Z,68.46
2022-08-02T06:35:27.468Z,68.65
2022-08-02T06:36:27.451Z,68.76
2022-08-02T06:37:27.455Z,68.89
2022-08-02T06:38:27.422Z,68.89
2022-08-02T06:39:27.397Z,69.29
2022-08-02T06:40:27.409Z,70.09
2022-08-02T06:41:27.381Z,70.32
2022-08-02T06:42:27.662Z,70.32
2022-08-02T06:43:27.352Z,70.63
2022-08-02T06:44:48.134Z,70.32
2022-08-02T06:45:28.320Z,70.12
2022-08-02T06:46:34.062Z,69.99
2022-08-02T06:47:28.304Z,69.79
2022-08-02T06:48:27.271Z,69.79
2022-08-02T06:49:27.373Z,69.79
2022-08-02T06:50:28.264Z,69.69
2022-08-02T06:51:27.243Z,69.99
2022-08-02T06:52:29.264Z,70.39
2022-08-02T06:53:27.213Z,70.39
2022-08-02T06:54:27.215Z,70.39
2022-08-02T06:55:27.192Z,70.09
2022-08-02T06:56:27.269Z,69.89
2022-08-02T06:57:27.181Z,69.76
2022-08-02T06:58:27.154Z,69.46
2022-08-02T06:59:27.224Z,69.46
2022-08-02T07:00:27.136Z,69.16
2022-08-02T07:01:27.125Z,69.12
2022-08-02T07:02:28.114Z,69.02
2022-08-02T07:03:27.084Z,68.92
2022-08-02T07:04:27.092Z,68.82
2022-08-02T07:05:27.054Z,69.02
2022-08-02T07:06:27.044Z,69.02
2022-08-02T07:07:27.054Z,69.12
2022-08-02T07:08:27.025Z,69.12
2022-08-02T07:09:26.995Z,69.23
2022-08-02T07:10:26.987Z,69.32
2022-08-02T07:11:26.962Z,69.23
2022-08-02T07:12:27.459Z,69.32
2022-08-02T07:13:27.294Z,69.32
2022-08-02T07:14:27.350Z,69.32
2022-08-02T07:15:26.937Z,70.06
2022-08-02T07:16:27.127Z,70.16
2022-08-02T07:17:26.917Z,70.36
2022-08-02T07:18:26.878Z,70.36
2022-08-02T07:19:34.964Z,70.06
2022-08-02T07:20:27.869Z,70.46
2022-08-02T07:21:55.930Z,70.46
2022-08-02T07:22:27.856Z,70.56
2022-08-02T07:23:26.827Z,70.66
2022-08-02T07:24:26.807Z,70.56
2022-08-02T07:25:26.785Z,70.46
2022-08-02T07:26:27.769Z,70.26
2022-08-02T07:27:26.786Z,70.12
2022-08-02T07:28:26.748Z,70.12
2022-08-02T07:29:26.735Z,69.93
2022-08-02T07:30:27.789Z,69.62
2022-08-02T07:31:26.715Z,69.39
2022-08-02T07:32:26.708Z,69.39
2022-08-02T07:33:39.095Z,69.29
2022-08-02T07:34:27.899Z,69.09
2022-08-02T07:35:26.655Z,68.96
2022-08-02T07:36:26.627Z,68.96
2022-08-02T07:37:53.447Z,68.96
2022-08-02T07:38:27.629Z,68.86
2022-08-02T07:39:26.599Z,68.66
2022-08-02T07:40:26.587Z,68.66
2022-08-02T07:41:26.569Z,68.76
2022-08-02T07:42:26.559Z,68.76
2022-08-02T07:43:26.549Z,68.86
2022-08-02T07:44:26.548Z,68.76
2022-08-02T07:45:26.524Z,68.52
2022-08-02T07:46:26.509Z,68.62
2022-08-02T07:47:26.500Z,68.62
2022-08-02T07:48:26.499Z,68.73
2022-08-02T07:49:26.519Z,68.93
2022-08-02T07:50:26.449Z,69.02
2022-08-02T07:51:26.462Z,68.96
2022-08-02T07:52:26.418Z,69.26
2022-08-02T07:53:50.175Z,69.86
2022-08-02T07:54:27.400Z,69.86
2022-08-02T07:55:39.381Z,69.36
2022-08-02T07:56:27.384Z,69.32
2022-08-02T07:57:26.361Z,70.46
2022-08-02T07:58:27.268Z,70.06
2022-08-02T07:59:26.355Z,69.56
2022-08-02T08:00:26.322Z,69.66
2022-08-02T08:01:26.423Z,69.53
2022-08-02T08:02:26.300Z,69.23
2022-08-02T08:03:26.302Z,69.12
2022-08-02T08:04:26.272Z,68.93
2022-08-02T08:05:26.304Z,69.02
2022-08-02T08:06:29.013Z,69.12
2022-08-02T08:07:26.233Z,68.99
2022-08-02T08:08:26.263Z,68.79
2022-08-02T08:09:27.454Z,68.69
2022-08-02T08:10:30.000Z,68.59
2022-08-02T08:11:26.192Z,68.49
2022-08-02T08:12:26.171Z,68.49
2022-08-02T08:13:26.174Z,68.39
2022-08-02T08:14:26.142Z,68.39
2022-08-02T08:15:26.469Z,68.29
2022-08-02T08:16:29.354Z,68.09
2022-08-02T08:17:26.532Z,68.09
2022-08-02T08:18:26.094Z,68.06
2022-08-02T08:19:50.247Z,68.06
2022-08-02T08:20:27.041Z,68.16
2022-08-02T08:21:26.055Z,68.06
2022-08-02T08:22:26.034Z,67.96
2022-08-02T08:23:26.045Z,67.96
2022-08-02T08:24:26.120Z,67.96
2022-08-02T08:25:27.235Z,68.16
2022-08-02T08:26:26.197Z,67.96
2022-08-02T08:27:27.064Z,67.76
2022-08-02T08:28:25.966Z,67.76
2022-08-02T08:29:25.937Z,67.56
2022-08-02T08:30:25.915Z,67.76
2022-08-02T08:31:25.924Z,67.86
2022-08-02T08:32:26.063Z,68.06
2022-08-02T08:33:25.904Z,67.96
2022-08-02T08:34:25.868Z,67.96
2022-08-02T08:35:25.857Z,67.66
2022-08-02T08:36:25.847Z,67.66
2022-08-02T08:37:25.829Z,68.33
2022-08-02T08:38:26.178Z,68.33
2022-08-02T08:39:25.817Z,68.13
2022-08-02T08:40:25.798Z,68.23
2022-08-02T08:41:25.805Z,67.63
2022-08-02T08:42:25.774Z,67.13
2022-08-02T08:43:25.767Z,67.23
2022-08-02T08:44:25.737Z,66.93
2022-08-02T08:45:25.728Z,66.83
2022-08-02T08:46:25.717Z,66.50
2022-08-02T08:47:25.708Z,66.20
2022-08-02T08:48:31.275Z,65.70
2022-08-02T08:49:26.779Z,65.50
2022-08-02T08:50:26.047Z,64.80
2022-08-02T08:51:25.639Z,64.00
2022-08-02T08:52:25.619Z,64.10
2022-08-02T08:53:36.872Z,63.20
2022-08-02T08:54:27.129Z,61.80
2022-08-02T08:55:25.599Z,62.70
2022-08-02T08:56:25.579Z,61.68
2022-08-02T08:57:25.589Z,62.27
2022-08-02T08:58:25.571Z,60.17
2022-08-02T08:59:25.540Z,60.38
2022-08-02T09:00:25.529Z,60.28
2022-08-02T09:01:25.640Z,60.28
2022-08-02T09:02:28.601Z,59.98
2022-08-02T09:03:25.509Z,60.28
2022-08-02T09:04:25.524Z,59.28
2022-08-02T09:05:25.459Z,58.68
2022-08-02T09:06:25.440Z,59.98
2022-08-02T09:07:25.431Z,58.28
2022-08-02T09:08:25.439Z,56.09
2022-08-02T09:09:25.412Z,56.29
2022-08-02T09:10:25.383Z,55.39
2022-08-02T09:11:25.378Z,56.18
2022-08-02T09:12:25.368Z,54.39
2022-08-02T09:13:38.954Z,54.09
2022-08-02T09:14:26.590Z,53.96
2022-08-02T09:15:25.342Z,54.86
2022-08-02T09:16:25.304Z,56.16
2022-08-02T09:17:25.300Z,56.16
2022-08-02T09:18:25.305Z,56.03
2022-08-02T09:19:25.299Z,56.63
2022-08-02T09:20:30.439Z,57.13
2022-08-02T09:21:26.251Z,56.63
2022-08-02T09:22:25.232Z,56.30
2022-08-02T09:23:25.233Z,55.51
2022-08-02T09:24:25.234Z,56.01
2022-08-02T09:25:26.205Z,56.60
2022-08-02T09:26:25.252Z,56.51
2022-08-02T09:27:25.183Z,56.10
2022-08-02T09:28:25.185Z,55.91
2022-08-02T09:29:25.168Z,55.91
2022-08-02T09:30:25.154Z,57.10
2022-08-02T09:31:25.115Z,54.51
2022-08-02T09:32:25.105Z,55.21
2022-08-02T09:33:25.107Z,55.98
2022-08-02T09:34:25.095Z,54.68
2022-08-02T09:35:25.065Z,55.28
2022-08-02T09:36:25.265Z,55.58
2022-08-02T09:37:25.035Z,56.27
2022-08-02T09:38:26.473Z,55.26
2022-08-02T09:39:25.036Z,55.65
2022-08-02T09:40:25.056Z,54.36
2022-08-02T09:41:24.996Z,52.76
2022-08-02T09:42:24.978Z,53.36
2022-08-02T09:43:26.017Z,53.96
2022-08-02T09:44:24.958Z,55.35
2022-08-02T09:45:24.977Z,55.55
2022-08-02T09:46:24.943Z,55.26
2022-08-02T09:47:24.914Z,54.96
2022-08-02T09:48:24.899Z,54.56
2022-08-02T09:49:24.925Z,54.36
2022-08-02T09:50:24.869Z,54.56
2022-08-02T09:51:24.857Z,54.66
2022-08-02T09:52:25.010Z,54.16
2022-08-02T09:53:26.122Z,54.26
2022-08-02T09:54:25.416Z,54.46
2022-08-02T09:55:25.104Z,53.56
2022-08-02T09:56:30.273Z,53.46
2022-08-02T09:57:26.149Z,55.05
2022-08-02T09:58:25.298Z,53.24
2022-08-02T09:59:25.317Z,52.74
2022-08-02T10:00:43.386Z,52.74
2022-08-02T10:01:37.201Z,52.34
2022-08-02T10:02:25.786Z,52.74
2022-08-02T10:03:26.741Z,52.34
2022-08-02T10:04:25.689Z,52.94
2022-08-02T10:05:24.680Z,51.54
2022-08-02T10:06:24.820Z,52.04
2022-08-02T10:07:24.938Z,52.24
2022-08-02T10:08:24.771Z,52.81
2022-08-02T10:09:24.878Z,53.51
2022-08-02T10:10:24.813Z,53.91
2022-08-02T10:11:24.603Z,53.81
2022-08-02T10:12:24.572Z,52.62
2022-08-02T10:13:24.553Z,52.72
2022-08-02T10:14:24.572Z,53.58
2022-08-02T10:15:27.336Z,53.58
2022-08-02T10:16:24.547Z,53.09
2022-08-02T10:17:24.560Z,53.28
2022-08-02T10:18:38.186Z,52.67
2022-08-02T10:20:01.977Z,52.86
2022-08-02T10:20:25.611Z,53.06
2022-08-02T10:21:24.561Z,52.56
2022-08-02T10:22:24.553Z,52.47
2022-08-02T10:23:24.433Z,52.37
2022-08-02T10:24:24.472Z,51.77
2022-08-02T10:25:25.224Z,51.75
2022-08-02T10:26:24.390Z,52.24
2022-08-02T10:27:24.774Z,51.95
2022-08-02T10:28:24.401Z,51.95
2022-08-02T10:29:24.374Z,51.42
2022-08-02T10:30:24.451Z,51.72
2022-08-02T10:31:24.469Z,50.83
2022-08-02T10:32:24.333Z,50.63
2022-08-02T10:33:24.293Z,48.74
2022-08-02T10:34:24.541Z,48.94
2022-08-02T10:35:26.758Z,49.61
2022-08-02T10:36:24.539Z,50.03
2022-08-02T10:37:24.574Z,48.74
2022-08-02T10:38:24.552Z,48.44
2022-08-02T10:39:25.475Z,49.44
2022-08-02T10:40:24.348Z,49.63
2022-08-02T10:41:24.203Z,49.93
2022-08-02T10:42:24.332Z,49.34
2022-08-02T10:43:24.163Z,49.71
2022-08-02T10:44:25.327Z,49.61
2022-08-02T10:45:24.132Z,48.82
2022-08-02T10:46:24.156Z,50.31
2022-08-02T10:47:24.113Z,49.51
2022-08-02T10:48:24.105Z,48.42
2022-08-02T10:49:40.609Z,49.29
2022-08-02T10:50:25.095Z,48.80
2022-08-02T10:51:24.510Z,48.50
2022-08-02T10:52:24.068Z,48.99
2022-08-02T10:53:24.039Z,48.47
2022-08-02T10:54:24.024Z,48.08
2022-08-02T10:55:24.034Z,47.88
2022-08-02T10:56:24.023Z,47.49
2022-08-02T10:57:23.988Z,47.88
2022-08-02T10:58:25.822Z,48.15
2022-08-02T10:59:23.986Z,47.26
2022-08-02T11:00:23.959Z,46.37
2022-08-02T11:01:23.976Z,44.86
2022-08-02T11:02:23.918Z,44.56
2022-08-02T11:03:23.888Z,44.17
2022-08-02T11:04:23.879Z,45.26
2022-08-02T11:05:23.888Z,45.26
2022-08-02T11:06:25.045Z,45.56
2022-08-02T11:07:23.858Z,44.37
2022-08-02T11:08:23.837Z,43.28
2022-08-02T11:09:27.048Z,44.17
2022-08-02T11:10:24.821Z,44.96
2022-08-02T11:11:53.723Z,45.65
2022-08-02T11:12:24.761Z,44.37
2022-08-02T11:13:23.771Z,44.07
2022-08-02T11:14:23.756Z,44.07
2022-08-02T11:15:23.772Z,41.99
2022-08-02T11:16:23.732Z,42.29
2022-08-02T11:17:23.711Z,42.57
2022-08-02T11:18:23.801Z,43.35
2022-08-02T11:19:23.700Z,43.55
2022-08-02T11:20:23.893Z,42.27
2022-08-02T11:21:23.680Z,41.77
2022-08-02T11:22:25.850Z,41.67
2022-08-02T11:23:23.641Z,43.33
2022-08-02T11:24:24.631Z,43.63
2022-08-02T11:25:23.642Z,43.63
2022-08-02T11:26:23.610Z,42.94
2022-08-02T11:27:23.595Z,41.65
2022-08-02T11:28:25.356Z,42.72
2022-08-02T11:29:23.570Z,43.91
2022-08-02T11:30:26.778Z,42.62
2022-08-02T11:31:23.534Z,42.52
2022-08-02T11:32:31.266Z,43.31
2022-08-02T11:33:24.514Z,43.02
2022-08-02T11:34:37.093Z,42.72
2022-08-02T11:35:24.505Z,42.72
2022-08-02T11:36:23.456Z,42.62
2022-08-02T11:37:23.456Z,43.41
2022-08-02T11:38:23.455Z,44.09
2022-08-02T11:39:23.456Z,44.09
2022-08-02T11:40:23.435Z,44.18
2022-08-02T11:41:46.923Z,43.39
2022-08-02T11:42:24.401Z,42.50
2022-08-02T11:43:23.388Z,42.48
2022-08-02T11:44:23.474Z,42.90
2022-08-02T11:45:27.538Z,43.19
2022-08-02T11:46:24.346Z,42.21
2022-08-02T11:47:23.337Z,42.21
2022-08-02T11:48:23.327Z,42.60
2022-08-02T11:49:23.358Z,43.07
2022-08-02T11:50:29.813Z,41.81
2022-08-02T11:51:24.808Z,40.92
2022-08-02T11:52:23.267Z,41.71
2022-08-02T11:53:23.249Z,41.33
2022-08-02T11:54:23.248Z,42.43
2022-08-02T11:55:23.308Z,42.52
2022-08-02T11:56:25.432Z,41.93
2022-08-02T11:57:23.205Z,42.40
2022-08-02T11:58:23.201Z,41.02
2022-08-02T11:59:23.169Z,41.12
2022-08-02T12:00:23.187Z,41.02
2022-08-02T12:01:24.149Z,41.12
2022-08-02T12:02:23.139Z,43.10
2022-08-02T12:03:23.164Z,42.11
2022-08-02T12:04:23.573Z,42.11
2022-08-02T12:05:44.740Z,43.10
2022-08-02T12:06:24.099Z,42.01
2022-08-02T12:07:34.292Z,42.97
2022-08-02T12:08:25.130Z,42.48
2022-08-02T12:09:23.040Z,41.39
2022-08-02T12:10:23.058Z,41.10
2022-08-02T12:11:23.021Z,42.29
2022-08-02T12:12:23.011Z,42.48
2022-08-02T12:13:22.991Z,42.38
2022-08-02T12:14:22.991Z,41.99
2022-08-02T12:15:22.983Z,42.38
2022-08-02T12:16:22.941Z,41.49
2022-08-02T12:17:22.952Z,43.17
2022-08-02T12:18:22.931Z,44.16
2022-08-02T12:19:22.904Z,45.15
2022-08-02T12:20:22.932Z,44.06
2022-08-02T12:21:22.892Z,42.19
2022-08-02T12:22:24.411Z,42.88
2022-08-02T12:23:23.133Z,42.36
2022-08-02T12:24:22.873Z,42.76
2022-08-02T12:25:33.438Z,43.35
2022-08-02T12:26:23.835Z,42.56
2022-08-02T12:27:22.825Z,41.28
2022-08-02T12:28:22.822Z,41.17
2022-08-02T12:29:58.004Z,41.28
2022-08-02T12:30:27.765Z,42.24
2022-08-02T12:31:22.775Z,41.75
2022-08-02T12:32:22.776Z,42.05
2022-08-02T12:33:22.765Z,40.37
2022-08-02T12:34:22.742Z,40.17
2022-08-02T12:35:26.769Z,40.66
2022-08-02T12:36:22.726Z,41.65
2022-08-02T12:37:22.693Z,41.25
2022-08-02T12:38:22.705Z,40.96
2022-08-02T12:39:22.674Z,41.63
2022-08-02T12:40:25.174Z,41.73
2022-08-02T12:41:31.185Z,42.02
2022-08-02T12:42:23.635Z,41.43
2022-08-02T12:43:22.637Z,41.43
2022-08-02T12:44:22.607Z,41.02
2022-08-02T12:45:22.594Z,41.22
2022-08-02T12:46:22.621Z,39.54
2022-08-02T12:47:22.578Z,39.25
2022-08-02T12:48:22.561Z,39.15
2022-08-02T12:49:22.582Z,40.92
2022-08-02T12:50:22.529Z,40.43
2022-08-02T12:51:22.538Z,40.70
2022-08-02T12:52:22.517Z,40.41